Pagrindinis puslapis
METAR-TAF:

METAR-TAF

Oro uostai :

Lleida-Alguaire

Lerida, Ispanija

platuma: 41-43-40N, ilguma: 000-32-09E, Aukštis: 350 m

Dabartinis oras

Ataskaita buvo paskelbta 28 minutes, ne 07:00 UTC
Vėjas 9 kt iš Rytų/Šiaurės Rytų, svyruoja nuo Šiaurės Rytų ir Rytų/Pietryčių
Temperatūra 28°C
Drėgmė 37%
Slėgis 1012 hPa
Matomumas 10 km arba daugiau
nėra debesų žemiau 1500 m ir nėra kamuolinių lietaus debesų

METAR: LEDA 200700Z 07009KT 050V110 CAVOK 28/12 Q1012

Laikas: 09:28 (07:28 UTC)


TAF: trūkstamas

Orai ataskaitas ir orų prognozės (METAR, TAF).

turimą stotys yra geltonos ir raudonos taškus žemėlapyje.

Perkelti pele per norėdami pamatyti stoties vardą.

Tada spustelėkite, norėdami matyti oro stebėjimo ir prognozės.

Norėdami pakeisti žemėlapį: spustelėkite ant žalios mygtukų su juodo kryžiaus žemyn,; žalią mygtuką su brūkšneliu, jei norite nutolinti; arba žalių rodyklių gretimoms žemėlapius.


METAR-TAF: